| time (UTC) | temp C | wind direction | speed KPH | gust KPH | rain 1hr cm | rain 24hr cm | rain mn cm | humidity % | barometer mb |
| 20260507203106 | 35 | 145 | 1.6 | 6.4 | 0.00 | 0.00 | 0.00 | 13 | 1012.9 |
| 20260507202601 | 34 | 154 | 1.6 | 9.7 | 0.00 | 0.00 | 0.00 | 13 | 1013.0 |
| 20260507202058 | 35 | 143 | 3.2 | 6.4 | 0.00 | 0.00 | 0.00 | 13 | 1013.3 |
| 20260507201553 | 34 | 149 | 8.0 | 11.3 | 0.00 | 0.00 | 0.00 | 13 | 1013.3 |
| 20260507201050 | 34 | 232 | 1.6 | 4.8 | 0.00 | 0.00 | 0.00 | 13 | 1013.5 |
| 20260507200545 | 34 | 200 | 4.8 | 9.7 | 0.00 | 0.00 | 0.00 | 14 | 1013.5 |
| 20260507200042 | 33 | 161 | 4.8 | 9.7 | 0.00 | 0.00 | 0.00 | 13 | 1013.6 |
| 20260507195539 | 34 | 214 | 3.2 | 9.7 | 0.00 | 0.00 | 0.00 | 13 | 1013.7 |
| 20260507195037 | 33 | 236 | 1.6 | 11.3 | 0.00 | 0.00 | 0.00 | 14 | 1013.8 |
| 20260507194532 | 33 | 202 | 1.6 | 4.8 | 0.00 | 0.00 | 0.00 | 14 | 1013.8 |
| 20260507194029 | 33 | 156 | 4.8 | 6.4 | 0.00 | 0.00 | 0.00 | 14 | 1013.9 |
| 20260507193526 | 33 | 189 | 4.8 | 9.7 | 0.00 | 0.00 | 0.00 | 15 | 1013.9 |
| 20260507193023 | 33 | 200 | 6.4 | 9.7 | 0.00 | 0.00 | 0.00 | 14 | 1014.2 |
| 20260507192519 | 33 | 213 | 4.8 | 11.3 | 0.00 | 0.00 | 0.00 | 15 | 1014.2 |
| 20260507192016 | 33 | 320 | 3.2 | 4.8 | 0.00 | 0.00 | 0.00 | 14 | 1014.3 |
| 20260507191511 | 33 | 257 | 3.2 | 6.4 | 0.00 | 0.00 | 0.00 | 14 | 1014.4 |
| 20260507191008 | 32 | 50 | 1.6 | 6.4 | 0.00 | 0.00 | 0.00 | 15 | 1014.5 |
| 20260507190506 | 33 | 154 | 6.4 | 9.7 | 0.00 | 0.00 | 0.00 | 15 | 1014.6 |
| 20260507190005 | 33 | 143 | 1.6 | 4.8 | 0.00 | 0.00 | 0.00 | 16 | 1014.6 |
| 20260507185502 | 32 | 158 | 1.6 | 6.4 | 0.00 | 0.00 | 0.00 | 16 | 1014.5 |
| 20260507184958 | 32 | 179 | 3.2 | 12.9 | 0.00 | 0.00 | 0.00 | 15 | 1014.8 |
| 20260507184456 | 32 | 223 | 3.2 | 9.7 | 0.00 | 0.00 | 0.00 | 16 | 1014.6 |
| 20260507183954 | 32 | 9 | 3.2 | 4.8 | 0.00 | 0.00 | 0.00 | 16 | 1014.9 |
| 20260507183450 | 32 | 144 | 4.8 | 9.7 | 0.00 | 0.00 | 0.00 | 16 | 1014.8 |
| 20260507182947 | 32 | 141 | 4.8 | 6.4 | 0.00 | 0.00 | 0.00 | 17 | 1014.9 |
| 20260507182443 | 31 | 176 | 6.4 | 12.9 | 0.00 | 0.00 | 0.00 | 17 | 1015.0 |
| 20260507181940 | 31 | 159 | 4.8 | 9.7 | 0.00 | 0.00 | 0.00 | 16 | 1015.0 |
| 20260507181436 | 31 | 199 | 3.2 | 9.7 | 0.00 | 0.00 | 0.00 | 18 | 1015.2 |
| 20260507180933 | 31 | 28 | 6.4 | 11.3 | 0.00 | 0.00 | 0.00 | 17 | 1015.1 |
| 20260507180430 | 32 | 169 | 0.0 | 3.2 | 0.00 | 0.00 | 0.00 | 17 | 1015.0 |
| 20260507175925 | 30 | 185 | 1.6 | 1.6 | 0.00 | 0.00 | 0.00 | 17 | 1015.3 |
| 20260507175422 | 31 | 131 | 3.2 | 6.4 | 0.00 | 0.00 | 0.00 | 18 | 1015.3 |
| 20260507174920 | 31 | 273 | 3.2 | 4.8 | 0.00 | 0.00 | 0.00 | 18 | 1015.4 |
| 20260507174417 | 30 | 185 | 0.0 | 3.2 | 0.00 | 0.00 | 0.00 | 17 | 1015.5 |
| 20260507173915 | 30 | 300 | 0.0 | 1.6 | 0.00 | 0.00 | 0.00 | 18 | 1015.5 |
| 20260507173411 | 30 | 204 | 0.0 | 6.4 | 0.00 | 0.00 | 0.00 | 18 | 1015.6 |
| 20260507172908 | 29 | 246 | 3.2 | 4.8 | 0.00 | 0.00 | 0.00 | 18 | 1015.5 |
| 20260507172405 | 30 | 156 | 3.2 | 4.8 | 0.00 | 0.00 | 0.00 | 18 | 1015.8 |
| 20260507171901 | 30 | 185 | 1.6 | 6.4 | 0.00 | 0.00 | 0.00 | 20 | 1015.6 |
| 20260507171357 | 30 | 176 | 1.6 | 6.4 | 0.00 | 0.00 | 0.00 | 20 | 1015.9 |
| 20260507170855 | 29 | 313 | 0.0 | 1.6 | 0.00 | 0.00 | 0.00 | 19 | 1015.9 |
| 20260507170351 | 29 | 297 | 0.0 | 3.2 | 0.00 | 0.00 | 0.00 | 20 | 1015.7 |
| 20260507165847 | 28 | 177 | 0.0 | 4.8 | 0.00 | 0.00 | 0.00 | 21 | 1015.8 |
| 20260507165343 | 28 | 216 | 1.6 | 3.2 | 0.00 | 0.00 | 0.00 | 22 | 1015.8 |
| 20260507164839 | 28 | 159 | 3.2 | 4.8 | 0.00 | 0.00 | 0.00 | 21 | 1016.0 |
| 20260507164336 | 28 | 203 | 0.0 | 0.0 | 0.00 | 0.00 | 0.00 | 21 | 1015.9 |
| 20260507163834 | 28 | 173 | 1.6 | 3.2 | 0.00 | 0.00 | 0.00 | 21 | 1016.1 |
| 20260507163331 | 27 | 45 | 1.6 | 4.8 | 0.00 | 0.00 | 0.00 | 21 | 1015.9 |
| 20260507162827 | 28 | 202 | 0.0 | 3.2 | 0.00 | 0.00 | 0.00 | 22 | 1016.2 |
| 20260507162323 | 27 | 52 | 3.2 | 4.8 | 0.00 | 0.00 | 0.00 | 22 | 1016.0 |
| 20260507161820 | 27 | 131 | 1.6 | 4.8 | 0.00 | 0.00 | 0.00 | 22 | 1016.0 |
| 20260507161317 | 27 | 186 | 0.0 | 1.6 | 0.00 | 0.00 | 0.00 | 22 | 1016.2 |
| 20260507160813 | 26 | 129 | 1.6 | 4.8 | 0.00 | 0.00 | 0.00 | 22 | 1016.2 |
| 20260507160309 | 26 | 173 | 0.0 | 3.2 | 0.00 | 0.00 | 0.00 | 23 | 1016.2 |
| 20260507155805 | 25 | 184 | 3.2 | 3.2 | 0.00 | 0.00 | 0.00 | 24 | 1016.3 |
| 20260507155301 | 25 | 191 | 3.2 | 3.2 | 0.00 | 0.00 | 0.00 | 23 | 1016.3 |
| 20260507154758 | 25 | 223 | 0.0 | 3.2 | 0.00 | 0.00 | 0.00 | 24 | 1016.3 |
| 20260507154256 | 25 | 194 | 1.6 | 3.2 | 0.00 | 0.00 | 0.00 | 24 | 1016.3 |
| 20260507153752 | 24 | 177 | 1.6 | 3.2 | 0.00 | 0.00 | 0.00 | 24 | 1016.2 |
| 20260507153248 | 24 | 191 | 3.2 | 4.8 | 0.00 | 0.00 | 0.00 | 26 | 1016.6 |
| 20260507152745 | 23 | 180 | 3.2 | 4.8 | 0.00 | 0.00 | 0.00 | 25 | 1016.5 |
| 20260507152242 | 23 | 145 | 3.2 | 3.2 | 0.00 | 0.00 | 0.00 | 26 | 1016.3 |
| 20260507151737 | 23 | 171 | 0.0 | 3.2 | 0.00 | 0.00 | 0.00 | 26 | 1016.3 |
| 20260507151234 | 23 | 175 | 0.0 | 3.2 | 0.00 | 0.00 | 0.00 | 27 | 1016.3 |
| 20260507150731 | 23 | 186 | 1.6 | 1.6 | 0.00 | 0.00 | 0.00 | 28 | 1016.2 |
| 20260507150228 | 22 | 207 | 0.0 | 3.2 | 0.00 | 0.00 | 0.00 | 28 | 1016.2 |
| 20260507145724 | 22 | 144 | 0.0 | 3.2 | 0.00 | 0.00 | 0.00 | 28 | 1016.0 |
| 20260507145221 | 21 | 158 | 1.6 | 3.2 | 0.00 | 0.00 | 0.00 | 30 | 1016.1 |
| 20260507144717 | 21 | 201 | 0.0 | 1.6 | 0.00 | 0.00 | 0.00 | 30 | 1016.1 |
| 20260507144215 | 21 | 221 | 0.0 | 1.6 | 0.00 | 0.00 | 0.00 | 29 | 1016.1 |
| 20260507143712 | 20 | 210 | 0.0 | 1.6 | 0.00 | 0.00 | 0.00 | 29 | 1016.3 |
| 20260507143209 | 20 | 184 | 1.6 | 1.6 | 0.00 | 0.00 | 0.00 | 29 | 1016.3 |
| 20260507142704 | 20 | 186 | 0.0 | 3.2 | 0.00 | 0.00 | 0.00 | 27 | 1016.1 |
| 20260507142201 | 20 | 160 | 1.6 | 3.2 | 0.00 | 0.00 | 0.00 | 27 | 1016.2 |
| 20260507141657 | 19 | 195 | 0.0 | 1.6 | 0.00 | 0.00 | 0.00 | 28 | 1016.1 |
| 20260507141154 | 18 | 209 | 0.0 | 1.6 | 0.00 | 0.00 | 0.00 | 30 | 1016.0 |
| 20260507140651 | 18 | 183 | 0.0 | 3.2 | 0.00 | 0.00 | 0.00 | 29 | 1016.0 |
| 20260507140149 | 17 | 187 | 0.0 | 0.0 | 0.00 | 0.00 | 0.00 | 29 | 1016.1 |
| 20260507135646 | 17 | 164 | 1.6 | 1.6 | 0.00 | 0.00 | 0.00 | 32 | 1016.0 |
| 20260507135143 | 17 | 187 | 0.0 | 1.6 | 0.00 | 0.00 | 0.00 | 31 | 1015.8 |
| 20260507134639 | 17 | 181 | 0.0 | 1.6 | 0.00 | 0.00 | 0.00 | 31 | 1015.7 |
| 20260507134135 | 17 | 189 | 0.0 | 1.6 | 0.00 | 0.00 | 0.00 | 33 | 1015.6 |
| 20260507133631 | 17 | 174 | 0.0 | 1.6 | 0.00 | 0.00 | 0.00 | 32 | 1015.6 |
| 20260507133129 | 17 | 225 | 0.0 | 0.0 | 0.00 | 0.00 | 0.00 | 32 | 1015.8 |
| 20260507132626 | 17 | 220 | 0.0 | 0.0 | 0.00 | 0.00 | 0.00 | 33 | 1015.8 |
| 20260507132122 | 17 | 209 | 0.0 | 0.0 | 0.00 | 0.00 | 0.00 | 32 | 1015.5 |
| 20260507131619 | 17 | 113 | 3.2 | 6.4 | 0.00 | 0.00 | 0.00 | 31 | 1015.7 |
| 20260507131116 | 17 | 152 | 3.2 | 6.4 | 0.00 | 0.00 | 0.00 | 31 | 1015.5 |
| 20260507130613 | 16 | 210 | 0.0 | 4.8 | 0.00 | 0.00 | 0.00 | 31 | 1015.8 |
| 20260507130111 | 16 | 245 | 3.2 | 6.4 | 0.00 | 0.00 | 0.00 | 32 | 1015.6 |
| 20260507125609 | 15 | 137 | 1.6 | 3.2 | 0.00 | 0.00 | 0.00 | 34 | 1015.8 |
| 20260507125107 | 15 | 140 | 3.2 | 4.8 | 0.00 | 0.00 | 0.00 | 34 | 1015.8 |
| 20260507124603 | 15 | 150 | 0.0 | 1.6 | 0.00 | 0.00 | 0.00 | 38 | 1015.5 |
| 20260507124101 | 15 | 192 | 0.0 | 3.2 | 0.00 | 0.00 | 0.00 | 38 | 1015.6 |
| 20260507123558 | 15 | 164 | 1.6 | 3.2 | 0.00 | 0.00 | 0.00 | 38 | 1015.6 |
| 20260507123055 | 15 | 180 | 0.0 | 0.0 | 0.00 | 0.00 | 0.00 | 40 | 1015.5 |
| 20260507122550 | 15 | 215 | 0.0 | 0.0 | 0.00 | 0.00 | 0.00 | 40 | 1015.6 |
| 20260507122046 | 15 | 182 | 0.0 | 0.0 | 0.00 | 0.00 | 0.00 | 40 | 1015.6 |
| 20260507121542 | 15 | 113 | 3.2 | 3.2 | 0.00 | 0.00 | 0.00 | 41 | 1015.4 |
| 20260507121039 | 15 | 175 | 0.0 | 1.6 | 0.00 | 0.00 | 0.00 | 39 | 1015.5 |
| 20260507120535 | 15 | 195 | 0.0 | 0.0 | 0.00 | 0.00 | 0.00 | 39 | 1015.4 |
| 20260507120032 | 15 | 204 | 0.0 | 0.0 | 0.00 | 0.00 | 0.00 | 39 | 1015.5 |
| 20260507115528 | 15 | 162 | 0.0 | 0.0 | 0.00 | 0.00 | 0.00 | 38 | 1015.6 |
| 20260507115024 | 15 | 203 | 0.0 | 0.0 | 0.00 | 0.00 | 0.00 | 37 | 1015.8 |
| 20260507114520 | 15 | 200 | 0.0 | 0.0 | 0.00 | 0.00 | 0.00 | 36 | 1015.5 |
| 20260507114017 | 15 | 209 | 0.0 | 0.0 | 0.00 | 0.00 | 0.00 | 36 | 1015.6 |
| 20260507113514 | 15 | 195 | 0.0 | 0.0 | 0.00 | 0.00 | 0.00 | 36 | 1015.7 |
| 20260507113012 | 16 | 161 | 0.0 | 0.0 | 0.00 | 0.00 | 0.00 | 39 | 1015.6 |
| 20260507112509 | 16 | 183 | 0.0 | 0.0 | 0.00 | 0.00 | 0.00 | 38 | 1015.6 |
| 20260507112006 | 16 | 224 | 0.0 | 0.0 | 0.00 | 0.00 | 0.00 | 35 | 1015.5 |
| 20260507111504 | 16 | 169 | 0.0 | 0.0 | 0.00 | 0.00 | 0.00 | 34 | 1015.6 |
| 20260507110959 | 16 | 146 | 0.0 | 0.0 | 0.00 | 0.00 | 0.00 | 33 | 1015.6 |
| 20260507110455 | 16 | 128 | 0.0 | 0.0 | 0.00 | 0.00 | 0.00 | 33 | 1015.7 |
| 20260507105952 | 16 | 229 | 0.0 | 0.0 | 0.00 | 0.00 | 0.00 | 33 | 1015.7 |
| 20260507105449 | 16 | 6 | 0.0 | 1.6 | 0.00 | 0.00 | 0.00 | 32 | 1015.8 |
| 20260507104946 | 16 | 219 | 0.0 | 0.0 | 0.00 | 0.00 | 0.00 | 35 | 1015.7 |
| 20260507104443 | 16 | 254 | 0.0 | 0.0 | 0.00 | 0.00 | 0.00 | 35 | 1015.8 |
| 20260507103938 | 15 | 222 | 0.0 | 0.0 | 0.00 | 0.00 | 0.00 | 41 | 1015.6 |
| 20260507103435 | 15 | 216 | 0.0 | 0.0 | 0.00 | 0.00 | 0.00 | 42 | 1015.7 |
| 20260507102931 | 15 | 218 | 0.0 | 0.0 | 0.00 | 0.00 | 0.00 | 41 | 1015.7 |
| 20260507102428 | 15 | 215 | 0.0 | 0.0 | 0.00 | 0.00 | 0.00 | 40 | 1015.7 |
| 20260507101925 | 16 | 211 | 0.0 | 0.0 | 0.00 | 0.00 | 0.00 | 40 | 1015.6 |
| 20260507101420 | 16 | 212 | 0.0 | 0.0 | 0.00 | 0.00 | 0.00 | 39 | 1015.8 |
| 20260507100917 | 16 | 209 | 0.0 | 0.0 | 0.00 | 0.00 | 0.00 | 38 | 1015.9 |
| 20260507100414 | 16 | 213 | 0.0 | 0.0 | 0.00 | 0.00 | 0.00 | 38 | 1016.0 |
| 20260507095913 | 16 | 208 | 0.0 | 0.0 | 0.00 | 0.00 | 0.00 | 38 | 1015.9 |
| 20260507095409 | 16 | 205 | 0.0 | 0.0 | 0.00 | 0.00 | 0.00 | 36 | 1016.0 |
| 20260507094906 | 16 | 212 | 0.0 | 0.0 | 0.00 | 0.00 | 0.00 | 34 | 1016.0 |
| 20260507094403 | 17 | 218 | 0.0 | 0.0 | 0.00 | 0.00 | 0.00 | 36 | 1016.0 |
| 20260507093859 | 17 | 208 | 0.0 | 0.0 | 0.00 | 0.00 | 0.00 | 36 | 1016.0 |
| 20260507093358 | 17 | 205 | 0.0 | 0.0 | 0.00 | 0.00 | 0.00 | 35 | 1016.0 |
| 20260507092856 | 17 | 199 | 0.0 | 0.0 | 0.00 | 0.00 | 0.00 | 33 | 1016.0 |
| 20260507092351 | 17 | 208 | 0.0 | 0.0 | 0.00 | 0.00 | 0.00 | 31 | 1015.9 |
| 20260507091848 | 18 | 221 | 0.0 | 0.0 | 0.00 | 0.00 | 0.00 | 29 | 1015.9 |
| 20260507091345 | 18 | 23 | 0.0 | 0.0 | 0.00 | 0.00 | 0.00 | 28 | 1016.1 |
| 20260507090840 | 18 | 345 | 0.0 | 1.6 | 0.00 | 0.00 | 0.00 | 29 | 1016.0 |
| 20260507090337 | 18 | 313 | 0.0 | 1.6 | 0.00 | 0.00 | 0.00 | 29 | 1016.1 |
| 20260507085834 | 17 | 257 | 1.6 | 1.6 | 0.00 | 0.00 | 0.00 | 31 | 1016.1 |
| 20260507085331 | 17 | 253 | 0.0 | 0.0 | 0.00 | 0.00 | 0.00 | 34 | 1016.0 |
| 20260507084828 | 18 | 221 | 0.0 | 0.0 | 0.00 | 0.00 | 0.00 | 33 | 1016.2 |
| 20260507084324 | 18 | 222 | 0.0 | 0.0 | 0.00 | 0.00 | 0.00 | 33 | 1016.2 |
| 20260507083822 | 18 | 235 | 0.0 | 0.0 | 0.00 | 0.00 | 0.00 | 33 | 1016.0 |
| 20260507083318 | 19 | 236 | 0.0 | 0.0 | 0.00 | 0.00 | 0.00 | 34 | 1016.2 |
| 20260507082814 | 19 | 240 | 0.0 | 0.0 | 0.00 | 0.00 | 0.00 | 31 | 1016.1 |
| 20260507082310 | 19 | 198 | 0.0 | 0.0 | 0.00 | 0.00 | 0.00 | 30 | 1016.3 |
| 20260507081808 | 19 | 199 | 0.0 | 0.0 | 0.00 | 0.00 | 0.00 | 31 | 1016.2 |
| 20260507081303 | 19 | 215 | 0.0 | 0.0 | 0.00 | 0.00 | 0.00 | 31 | 1016.2 |
| 20260507080800 | 20 | 220 | 0.0 | 0.0 | 0.00 | 0.00 | 0.00 | 30 | 1016.3 |
| 20260507080257 | 20 | 182 | 0.0 | 0.0 | 0.00 | 0.00 | 0.00 | 29 | 1016.3 |
| 20260507075752 | 20 | 143 | 0.0 | 1.6 | 0.00 | 0.00 | 0.00 | 29 | 1016.5 |
| 20260507075248 | 20 | 152 | 0.0 | 1.6 | 0.00 | 0.00 | 0.00 | 29 | 1016.2 |
| 20260507074744 | 20 | 203 | 0.0 | 0.0 | 0.00 | 0.00 | 0.00 | 30 | 1016.5 |
| 20260507074243 | 20 | 174 | 0.0 | 1.6 | 0.00 | 0.00 | 0.00 | 29 | 1016.5 |
| 20260507073739 | 20 | 161 | 0.0 | 1.6 | 0.00 | 0.00 | 0.00 | 30 | 1016.6 |
| 20260507073236 | 20 | 173 | 1.6 | 1.6 | 0.00 | 0.00 | 0.00 | 30 | 1016.5 |
| 20260507072734 | 20 | 184 | 0.0 | 0.0 | 0.00 | 0.00 | 0.00 | 30 | 1016.3 |
| 20260507072231 | 20 | 182 | 0.0 | 0.0 | 0.00 | 0.00 | 0.00 | 30 | 1016.6 |
| 20260507071728 | 20 | 211 | 0.0 | 0.0 | 0.00 | 0.00 | 0.00 | 30 | 1016.5 |
| 20260507071224 | 20 | 208 | 0.0 | 0.0 | 0.00 | 0.00 | 0.00 | 31 | 1016.6 |
| 20260507070721 | 20 | 207 | 0.0 | 0.0 | 0.00 | 0.00 | 0.00 | 32 | 1016.6 |
| 20260507070218 | 20 | 190 | 0.0 | 0.0 | 0.00 | 0.00 | 0.00 | 31 | 1016.6 |
| 20260507065715 | 20 | 211 | 0.0 | 0.0 | 0.00 | 0.00 | 0.00 | 31 | 1016.8 |
| 20260507065212 | 20 | 207 | 0.0 | 0.0 | 0.00 | 0.00 | 0.00 | 29 | 1016.6 |
| 20260507064709 | 20 | 196 | 0.0 | 0.0 | 0.00 | 0.00 | 0.00 | 30 | 1016.7 |
| 20260507064208 | 20 | 202 | 0.0 | 0.0 | 0.00 | 0.00 | 0.00 | 30 | 1016.8 |
| 20260507063705 | 20 | 197 | 0.0 | 0.0 | 0.00 | 0.00 | 0.00 | 30 | 1016.7 |
| 20260507063201 | 21 | 142 | 0.0 | 0.0 | 0.00 | 0.00 | 0.00 | 28 | 1016.7 |
| 20260507062658 | 21 | 188 | 0.0 | 0.0 | 0.00 | 0.00 | 0.00 | 28 | 1016.6 |
| 20260507062156 | 21 | 184 | 0.0 | 0.0 | 0.00 | 0.00 | 0.00 | 28 | 1016.6 |
| 20260507061654 | 21 | 185 | 0.0 | 0.0 | 0.00 | 0.00 | 0.00 | 28 | 1016.6 |
| 20260507061152 | 21 | 198 | 0.0 | 1.6 | 0.00 | 0.00 | 0.00 | 28 | 1016.7 |
| 20260507060649 | 21 | 116 | 0.0 | 1.6 | 0.00 | 0.00 | 0.00 | 29 | 1016.7 |
| 20260507060145 | 20 | 170 | 0.0 | 1.6 | 0.00 | 0.00 | 0.00 | 29 | 1016.7 |
| 20260507055641 | 20 | 196 | 0.0 | 0.0 | 0.00 | 0.00 | 0.00 | 29 | 1016.7 |
| 20260507055137 | 20 | 199 | 0.0 | 0.0 | 0.00 | 0.00 | 0.00 | 30 | 1016.6 |
| 20260507054633 | 21 | 196 | 0.0 | 0.0 | 0.00 | 0.00 | 0.00 | 29 | 1016.6 |
| 20260507054130 | 21 | 192 | 0.0 | 0.0 | 0.00 | 0.00 | 0.00 | 28 | 1016.7 |
| 20260507053628 | 21 | 189 | 0.0 | 0.0 | 0.00 | 0.00 | 0.00 | 29 | 1016.6 |
| 20260507053126 | 21 | 165 | 0.0 | 0.0 | 0.00 | 0.00 | 0.00 | 28 | 1016.5 |
| 20260507052624 | 21 | 162 | 0.0 | 0.0 | 0.00 | 0.00 | 0.00 | 28 | 1016.2 |
| 20260507052120 | 21 | 203 | 0.0 | 0.0 | 0.00 | 0.00 | 0.00 | 29 | 1016.5 |
| 20260507051618 | 21 | 202 | 0.0 | 0.0 | 0.00 | 0.00 | 0.00 | 29 | 1016.5 |
| 20260507051115 | 22 | 198 | 0.0 | 0.0 | 0.00 | 0.00 | 0.00 | 28 | 1016.2 |
| 20260507050611 | 22 | 188 | 0.0 | 3.2 | 0.00 | 0.00 | 0.00 | 27 | 1016.2 |
| 20260507050108 | 22 | 192 | 0.0 | 0.0 | 0.00 | 0.00 | 0.00 | 26 | 1016.3 |
| 20260507045605 | 22 | 183 | 0.0 | 0.0 | 0.00 | 0.00 | 0.00 | 27 | 1016.5 |
| 20260507045102 | 22 | 193 | 0.0 | 0.0 | 0.00 | 0.00 | 0.00 | 28 | 1016.2 |
| 20260507044558 | 22 | 200 | 0.0 | 0.0 | 0.00 | 0.00 | 0.00 | 27 | 1016.2 |
| 20260507044056 | 22 | 194 | 0.0 | 0.0 | 0.00 | 0.00 | 0.00 | 28 | 1016.1 |
| 20260507043551 | 22 | 199 | 0.0 | 1.6 | 0.00 | 0.00 | 0.00 | 28 | 1016.1 |
| 20260507043049 | 22 | 193 | 0.0 | 3.2 | 0.00 | 0.00 | 0.00 | 28 | 1016.0 |
| 20260507042544 | 22 | 186 | 0.0 | 0.0 | 0.00 | 0.00 | 0.00 | 29 | 1016.1 |
| 20260507042040 | 22 | 170 | 0.0 | 0.0 | 0.00 | 0.00 | 0.00 | 29 | 1016.0 |
| 20260507041537 | 22 | 194 | 0.0 | 0.0 | 0.00 | 0.00 | 0.00 | 29 | 1016.1 |
| 20260507041034 | 22 | 191 | 0.0 | 0.0 | 0.00 | 0.00 | 0.00 | 28 | 1015.9 |
| 20260507040531 | 23 | 191 | 0.0 | 1.6 | 0.00 | 0.00 | 0.00 | 27 | 1015.9 |
| 20260507040026 | 23 | 150 | 0.0 | 1.6 | 0.00 | 0.00 | 0.00 | 28 | 1015.7 |
| 20260507035523 | 23 | 199 | 0.0 | 3.2 | 0.00 | 0.00 | 0.00 | 28 | 1015.9 |
| 20260507035020 | 23 | 217 | 1.6 | 3.2 | 0.00 | 0.00 | 0.00 | 26 | 1015.6 |
| 20260507034517 | 23 | 197 | 0.0 | 1.6 | 0.00 | 0.00 | 0.00 | 26 | 1015.6 |
| 20260507034015 | 23 | 193 | 1.6 | 3.2 | 0.00 | 0.00 | 0.00 | 26 | 1015.7 |
| 20260507033512 | 23 | 191 | 0.0 | 1.6 | 0.00 | 0.00 | 0.00 | 25 | 1015.5 |
| 20260507033009 | 23 | 196 | 0.0 | 3.2 | 0.00 | 0.00 | 0.00 | 25 | 1015.4 |
| 20260507032506 | 23 | 147 | 3.2 | 4.8 | 0.00 | 0.00 | 0.00 | 25 | 1015.5 |
| 20260507032002 | 23 | 201 | 1.6 | 1.6 | 0.00 | 0.00 | 0.00 | 26 | 1015.3 |
| 20260507031458 | 24 | 180 | 0.0 | 1.6 | 0.00 | 0.00 | 0.00 | 26 | 1015.3 |
| 20260507030955 | 25 | 185 | 0.0 | 1.6 | 0.00 | 0.00 | 0.00 | 26 | 1015.2 |
| 20260507030452 | 25 | 190 | 0.0 | 3.2 | 0.00 | 0.00 | 0.00 | 24 | 1014.8 |
| 20260507025950 | 25 | 194 | 0.0 | 0.0 | 0.00 | 0.00 | 0.00 | 24 | 1014.9 |
| 20260507025447 | 25 | 194 | 1.6 | 1.6 | 0.00 | 0.00 | 0.00 | 24 | 1014.9 |
| 20260507024945 | 25 | 179 | 1.6 | 1.6 | 0.00 | 0.00 | 0.00 | 23 | 1015.0 |
| 20260507024442 | 25 | 195 | 0.0 | 0.0 | 0.00 | 0.00 | 0.00 | 24 | 1014.9 |
| 20260507023937 | 26 | 205 | 0.0 | 1.6 | 0.00 | 0.00 | 0.00 | 24 | 1014.9 |
| 20260507023434 | 26 | 216 | 0.0 | 0.0 | 0.00 | 0.00 | 0.00 | 22 | 1014.9 |
| 20260507022931 | 26 | 225 | 1.6 | 3.2 | 0.00 | 0.00 | 0.00 | 22 | 1014.7 |
| 20260507022429 | 26 | 193 | 3.2 | 3.2 | 0.00 | 0.00 | 0.00 | 22 | 1014.7 |
| 20260507021924 | 26 | 198 | 1.6 | 4.8 | 0.00 | 0.00 | 0.00 | 22 | 1014.6 |
| 20260507021420 | 27 | 181 | 1.6 | 3.2 | 0.00 | 0.00 | 0.00 | 22 | 1014.6 |
| 20260507020918 | 27 | 192 | 0.0 | 3.2 | 0.00 | 0.00 | 0.00 | 22 | 1014.6 |
| 20260507020414 | 27 | 194 | 0.0 | 3.2 | 0.00 | 0.00 | 0.00 | 22 | 1014.4 |
| 20260507015911 | 27 | 204 | 1.6 | 3.2 | 0.00 | 0.00 | 0.00 | 21 | 1014.5 |
| 20260507015409 | 27 | 185 | 3.2 | 4.8 | 0.00 | 0.00 | 0.00 | 22 | 1014.5 |
| 20260507014906 | 27 | 185 | 1.6 | 3.2 | 0.00 | 0.00 | 0.00 | 22 | 1014.6 |
| 20260507014402 | 27 | 181 | 0.0 | 3.2 | 0.00 | 0.00 | 0.00 | 21 | 1014.5 |
| 20260507013859 | 27 | 171 | 3.2 | 4.8 | 0.00 | 0.00 | 0.00 | 22 | 1014.6 |
| 20260507013356 | 28 | 199 | 3.2 | 6.4 | 0.00 | 0.00 | 0.00 | 21 | 1014.5 |
| 20260507012853 | 28 | 180 | 1.6 | 4.8 | 0.00 | 0.00 | 0.00 | 21 | 1014.5 |
| 20260507012350 | 28 | 224 | 1.6 | 4.8 | 0.00 | 0.00 | 0.00 | 21 | 1014.5 |
| 20260507011847 | 28 | 179 | 3.2 | 4.8 | 0.00 | 0.00 | 0.00 | 21 | 1014.7 |
| 20260507011344 | 28 | 207 | 4.8 | 4.8 | 0.00 | 0.00 | 0.00 | 21 | 1014.5 |
| 20260507010843 | 28 | 187 | 3.2 | 9.7 | 0.00 | 0.00 | 0.00 | 21 | 1014.7 |
| 20260507010339 | 28 | 211 | 3.2 | 4.8 | 0.00 | 0.00 | 0.00 | 20 | 1014.5 |
| 20260507005836 | 28 | 223 | 3.2 | 6.4 | 0.00 | 0.00 | 0.00 | 21 | 1014.7 |
| 20260507005333 | 28 | 173 | 3.2 | 6.4 | 0.00 | 0.00 | 0.00 | 21 | 1014.7 |
| 20260507004830 | 28 | 189 | 4.8 | 9.7 | 0.00 | 0.00 | 0.00 | 21 | 1014.6 |
| 20260507004327 | 29 | 198 | 3.2 | 9.7 | 0.00 | 0.00 | 0.00 | 20 | 1014.6 |
| 20260507003824 | 29 | 240 | 3.2 | 9.7 | 0.00 | 0.00 | 0.00 | 21 | 1014.7 |
| 20260507003319 | 29 | 211 | 3.2 | 4.8 | 0.00 | 0.00 | 0.00 | 20 | 1014.5 |
| 20260507002814 | 29 | 207 | 3.2 | 3.2 | 0.00 | 0.00 | 0.00 | 21 | 1014.5 |
| 20260507002311 | 30 | 210 | 4.8 | 11.3 | 0.00 | 0.00 | 0.00 | 20 | 1014.6 |
| 20260507001809 | 29 | 229 | 1.6 | 3.2 | 0.00 | 0.00 | 0.00 | 20 | 1014.4 |
| 20260507001306 | 30 | 215 | 4.8 | 4.8 | 0.00 | 0.00 | 0.00 | 20 | 1014.5 |
| 20260507000802 | 29 | 251 | 4.8 | 4.8 | 0.00 | 0.00 | 0.00 | 20 | 1014.6 |
| 20260507000259 | 30 | 188 | 1.6 | 4.8 | 0.00 | 0.00 | 0.00 | 19 | 1014.6 |
| 20260506235754 | 30 | 204 | 3.2 | 4.8 | 0.00 | 0.00 | 0.00 | 20 | 1014.7 |
| 20260506235250 | 29 | 210 | 3.2 | 4.8 | 0.00 | 0.00 | 0.00 | 20 | 1014.4 |
| 20260506234747 | 29 | 359 | 3.2 | 4.8 | 0.00 | 0.00 | 0.00 | 20 | 1014.6 |
| 20260506234245 | 29 | 207 | 3.2 | 6.4 | 0.00 | 0.00 | 0.00 | 20 | 1014.7 |
| 20260506233742 | 30 | 137 | 3.2 | 4.8 | 0.00 | 0.00 | 0.00 | 20 | 1014.7 |
| 20260506233238 | 29 | 183 | 3.2 | 6.4 | 0.00 | 0.00 | 0.00 | 21 | 1014.7 |
| 20260506232735 | 30 | 292 | 3.2 | 4.8 | 0.00 | 0.00 | 0.00 | 20 | 1014.7 |
| 20260506232230 | 30 | 353 | 3.2 | 3.2 | 0.00 | 0.00 | 0.00 | 19 | 1014.8 |
| 20260506231727 | 29 | 236 | 9.7 | 14.5 | 0.00 | 0.00 | 0.00 | 20 | 1014.8 |
| 20260506231226 | 30 | 29 | 3.2 | 9.7 | 0.00 | 0.00 | 0.00 | 20 | 1014.9 |
| 20260506230722 | 30 | 266 | 3.2 | 4.8 | 0.00 | 0.00 | 0.00 | 20 | 1015.0 |
| 20260506230219 | 30 | 195 | 3.2 | 4.8 | 0.00 | 0.00 | 0.00 | 19 | 1014.9 |
| 20260506225715 | 30 | 166 | 1.6 | 6.4 | 0.00 | 0.00 | 0.00 | 20 | 1015.0 |
| 20260506225212 | 30 | 243 | 3.2 | 6.4 | 0.00 | 0.00 | 0.00 | 20 | 1015.1 |
| 20260506224709 | 30 | 230 | 4.8 | 9.7 | 0.00 | 0.00 | 0.00 | 20 | 1015.1 |
| 20260506224206 | 30 | 251 | 4.8 | 6.4 | 0.00 | 0.00 | 0.00 | 20 | 1015.3 |
| 20260506223702 | 30 | 169 | 3.2 | 6.4 | 0.00 | 0.00 | 0.00 | 20 | 1015.3 |
| 20260506223158 | 29 | 229 | 1.6 | 6.4 | 0.00 | 0.00 | 0.00 | 20 | 1015.3 |
| 20260506222655 | 30 | 345 | 1.6 | 6.4 | 0.00 | 0.00 | 0.00 | 20 | 1015.4 |
| 20260506222151 | 30 | 195 | 4.8 | 9.7 | 0.00 | 0.00 | 0.00 | 21 | 1015.3 |
| 20260506221649 | 29 | 122 | 1.6 | 11.3 | 0.00 | 0.00 | 0.00 | 20 | 1015.5 |
| 20260506221147 | 30 | 88 | 3.2 | 3.2 | 0.00 | 0.00 | 0.00 | 20 | 1015.4 |
| 20260506220643 | 29 | 220 | 3.2 | 4.8 | 0.00 | 0.00 | 0.00 | 21 | 1015.7 |
| 20260506220138 | 30 | 241 | 1.6 | 3.2 | 0.00 | 0.00 | 0.00 | 21 | 1015.7 |
| 20260506215635 | 29 | 185 | 1.6 | 4.8 | 0.00 | 0.00 | 0.00 | 21 | 1015.8 |
| 20260506215131 | 29 | 253 | 3.2 | 9.7 | 0.00 | 0.00 | 0.00 | 21 | 1015.8 |
| 20260506214628 | 30 | 246 | 4.8 | 6.4 | 0.00 | 0.00 | 0.00 | 20 | 1015.8 |
| 20260506214125 | 28 | 145 | 4.8 | 11.3 | 0.00 | 0.00 | 0.00 | 21 | 1016.0 |
| 20260506213623 | 28 | 165 | 6.4 | 9.7 | 0.00 | 0.00 | 0.00 | 20 | 1015.9 |
| 20260506213120 | 28 | 157 | 4.8 | 6.4 | 0.00 | 0.00 | 0.00 | 20 | 1016.0 |
| 20260506212618 | 28 | 228 | 0.0 | 6.4 | 0.00 | 0.00 | 0.00 | 21 | 1016.3 |
| 20260506212112 | 28 | 151 | 6.4 | 9.7 | 0.00 | 0.00 | 0.00 | 20 | 1016.3 |
| 20260506211608 | 28 | 189 | 1.6 | 4.8 | 0.00 | 0.00 | 0.00 | 21 | 1016.6 |
| 20260506211105 | 28 | 202 | 6.4 | 11.3 | 0.00 | 0.00 | 0.00 | 20 | 1016.5 |
| 20260506210602 | 28 | 203 | 6.4 | 9.7 | 0.00 | 0.00 | 0.00 | 20 | 1016.7 |
| 20260506210058 | 28 | 141 | 3.2 | 9.7 | 0.00 | 0.00 | 0.00 | 20 | 1016.8 |
| 20260506205555 | 28 | 89 | 4.8 | 11.3 | 0.00 | 0.00 | 0.00 | 20 | 1017.0 |
| 20260506205050 | 28 | 136 | 4.8 | 9.7 | 0.00 | 0.00 | 0.00 | 20 | 1016.8 |
| 20260506204549 | 28 | 226 | 1.6 | 4.8 | 0.00 | 0.00 | 0.00 | 21 | 1017.0 |
| 20260506204045 | 28 | 171 | 4.8 | 11.3 | 0.00 | 0.00 | 0.00 | 20 | 1016.9 |
| 20260506203544 | 27 | 249 | 0.0 | 4.8 | 0.00 | 0.00 | 0.00 | 21 | 1017.1 |